Time;durP1;ratioP1;P1;durP2;ratioP2;P2;SDS_P1;SDS_P2;PMS_P1;PMS_P2;Temp;Humidity;BMP_temperature;BMP_pressure;BME280_temperature;BME280_humidity;BME280_pressure;Samples;Min_cycle;Max_cycle;Signal;HPM_P1;HPM_P2
2021/09/13 00:07:48;;;;;;;17.55;6.00;;;23.40;43.40;;;;;;21058929;27;82097;-73
2021/09/13 00:17:50;;;;;;;20.25;5.85;;;23.40;43.80;;;;;;21040607;27;80923;-71
2021/09/13 00:27:53;;;;;;;19.40;5.40;;;23.30;44.20;;;;;;21057431;27;80862;-71
2021/09/13 00:37:57;;;;;;;16.98;4.95;;;23.20;43.40;;;;;;21056938;27;80798;-73
2021/09/13 00:47:58;;;;;;;10.60;5.15;;;23.00;43.80;;;;;;21037428;27;80735;-74
2021/09/13 00:58:02;;;;;;;17.38;5.13;;;22.90;44.50;;;;;;21055333;27;80379;-73
2021/09/13 01:08:04;;;;;;;15.38;5.32;;;22.90;44.70;;;;;;21054719;27;80536;-72
2021/09/13 01:18:08;;;;;;;19.45;4.88;;;22.70;45.40;;;;;;21036598;27;80643;-72
2021/09/13 01:28:11;;;;;;;10.90;4.93;;;22.60;45.10;;;;;;21053327;27;80785;-72
2021/09/13 01:38:22;;;;;;;10.68;4.40;;;22.40;45.30;;;;;;21054376;27;80557;-72
2021/09/13 01:48:44;;;;;;;13.45;4.38;;;22.20;45.60;;;;;;21038330;27;80385;-74
2021/09/13 01:58:51;;;;;;;9.00;3.83;;;21.80;46.20;;;;;;21053142;27;80010;-72
2021/09/13 02:08:57;;;;;;;18.55;4.10;;;21.70;46.20;;;;;;21066734;27;80747;-73
2021/09/13 02:19:05;;;;;;;17.80;4.60;;;21.50;46.90;;;;;;21064790;27;80879;-72
2021/09/13 02:29:09;;;;;;;20.27;5.05;;;21.50;46.30;;;;;;21048070;27;80438;-74
2021/09/13 02:39:14;;;;;;;14.82;4.70;;;21.50;46.40;;;;;;21047358;27;80739;-74
2021/09/13 02:49:17;;;;;;;13.10;4.63;;;21.50;46.70;;;;;;21048579;27;81936;-73
2021/09/13 02:59:19;;;;;;;19.17;4.40;;;21.50;47.30;;;;;;21046841;27;82015;-73
2021/09/13 03:09:23;;;;;;;11.32;4.30;;;21.40;47.10;;;;;;21064069;27;82314;-71
2021/09/13 03:19:28;;;;;;;15.90;3.92;;;21.40;47.60;;;;;;21044448;27;80294;-73
2021/09/13 03:29:30;;;;;;;13.38;3.88;;;21.20;47.80;;;;;;21063972;27;80055;-73
2021/09/13 03:39:36;;;;;;;8.50;3.20;;;21.40;47.40;;;;;;21061407;27;81101;-72
2021/09/13 03:49:38;;;;;;;15.30;4.68;;;21.30;48.70;;;;;;21060934;27;81070;-72
2021/09/13 03:59:41;;;;;;;17.55;4.40;;;21.30;49.20;;;;;;21041892;27;81118;-73
2021/09/13 04:19:59;;;;;;;13.98;4.07;;;21.40;50.20;;;;;;21059415;27;80575;-71
2021/09/13 04:30:04;;;;;;;11.18;4.68;;;21.50;51.00;;;;;;21039359;27;80711;-74
2021/09/13 04:40:07;;;;;;;13.70;4.22;;;21.50;51.00;;;;;;21007938;27;82121;-73
2021/09/13 04:50:17;;;;;;;13.27;4.22;;;21.50;49.50;;;;;;21036180;27;80354;-74
2021/09/13 05:00:21;;;;;;;17.02;4.00;;;21.50;48.60;;;;;;21055872;27;81151;-73
2021/09/13 05:10:26;;;;;;;15.40;4.25;;;21.40;48.80;;;;;;21051854;27;80736;-74
2021/09/13 05:20:28;;;;;;;15.18;4.57;;;21.40;48.50;;;;;;21038531;27;80924;-75
2021/09/13 05:30:32;;;;;;;9.95;4.18;;;21.50;48.10;;;;;;21036819;27;81126;-75
2021/09/13 05:40:36;;;;;;;15.90;4.60;;;21.40;50.80;;;;;;21037148;27;80787;-75
2021/09/13 05:50:41;;;;;;;14.18;4.03;;;21.30;50.30;;;;;;21054135;27;82325;-75
2021/09/13 06:00:43;;;;;;;18.13;4.60;;;21.30;50.10;;;;;;20998252;27;81070;-72
2021/09/13 06:10:46;;;;;;;17.95;4.55;;;21.30;49.10;;;;;;20968582;27;80923;-67
2021/09/13 06:20:48;;;;;;;19.17;5.03;;;21.40;49.80;;;;;;20979909;27;82446;-72
2021/09/13 06:30:50;;;;;;;18.73;5.15;;;21.50;49.30;;;;;;20951496;27;81830;-69
2021/09/13 06:40:53;;;;;;;20.60;5.85;;;21.70;48.20;;;;;;20949956;27;81647;-70
2021/09/13 06:50:55;;;;;;;12.10;4.20;;;21.70;49.30;;;;;;20972413;27;80861;-68
2021/09/13 07:00:57;;;;;;;;;;;21.90;49.20;;;;;;20957307;27;80651;-70
2021/09/13 07:11:03;;;;;;;26.40;4.80;;;22.00;48.00;;;;;;20974632;27;82464;-70
2021/09/13 07:21:06;;;;;;;16.45;5.53;;;22.40;47.00;;;;;;20977117;27;80087;-70
2021/09/13 07:31:09;;;;;;;21.77;4.82;;;22.30;46.70;;;;;;20976219;27;80381;-71
2021/09/13 07:41:14;;;;;;;17.35;5.13;;;22.20;47.50;;;;;;20976480;27;80051;-69
2021/09/13 07:51:16;;;;;;;20.33;4.60;;;22.40;47.10;;;;;;20978545;27;81608;-69
2021/09/13 08:01:27;;;;;;;29.23;5.73;;;23.50;45.20;;;;;;21020877;27;80793;-72
2021/09/13 08:11:31;;;;;;;15.30;4.22;;;24.00;44.60;;;;;;21021577;27;81920;-69
2021/09/13 08:21:34;;;;;;;16.85;5.47;;;24.20;44.10;;;;;;21020726;27;81987;-69
2021/09/13 08:31:37;;;;;;;19.75;4.65;;;24.20;44.30;;;;;;21043667;27;81192;-68
2021/09/13 08:41:42;;;;;;;16.60;5.13;;;23.90;45.40;;;;;;21026801;27;81469;-70
2021/09/13 08:51:45;;;;;;;21.27;5.95;;;24.00;47.30;;;;;;21042993;27;81795;-70
2021/09/13 09:01:49;;;;;;;18.83;5.35;;;24.10;48.90;;;;;;21035577;27;81453;-71
2021/09/13 09:12:02;;;;;;;24.10;5.82;;;25.00;47.40;;;;;;21005477;27;80765;-69
2021/09/13 09:22:24;;;;;;;22.65;5.38;;;26.20;45.40;;;;;;21039268;27;80740;-69
2021/09/13 09:32:27;;;;;;;31.67;6.45;;;26.60;43.40;;;;;;21021070;27;80659;-72
2021/09/13 09:42:35;;;;;;;17.25;5.35;;;28.10;40.00;;;;;;21042895;27;81101;-71
2021/09/13 09:52:40;;;;;;;14.82;4.65;;;29.10;37.30;;;;;;21042480;27;81912;-70
2021/09/13 10:02:43;;;;;;;16.58;5.78;;;29.20;35.80;;;;;;21016189;27;81872;-71
2021/09/13 10:12:47;;;;;;;21.55;5.88;;;29.60;33.70;;;;;;21009492;27;80690;-70
2021/09/13 10:22:51;;;;;;;15.05;4.72;;;29.60;34.10;;;;;;21024348;27;81817;-70
2021/09/13 10:33:11;;;;;;;20.38;5.72;;;29.40;34.50;;;;;;21052215;27;81851;-70
2021/09/13 10:43:21;;;;;;;15.35;4.85;;;29.70;34.40;;;;;;21049071;27;81281;-70
2021/09/13 10:53:23;;;;;;;14.45;5.60;;;29.70;34.00;;;;;;21050065;27;80482;-69
2021/09/13 11:13:32;;;;;;;15.88;4.80;;;31.60;30.60;;;;;;21042960;27;81408;-69
2021/09/13 11:23:34;;;;;;;28.25;6.35;;;37.60;23.90;;;;;;21051291;27;82067;-69
2021/09/13 11:33:39;;;;;;;14.32;4.78;;;35.40;25.50;;;;;;21027752;27;81817;-71
2021/09/13 11:44:03;;;;;;;18.42;4.97;;;31.30;29.40;;;;;;21048383;27;81889;-69
2021/09/13 11:54:05;;;;;;;15.75;4.35;;;29.80;31.10;;;;;;21049513;27;81638;-70
2021/09/13 12:04:27;;;;;;;21.67;5.30;;;29.80;31.60;;;;;;21048459;27;81269;-70
2021/09/13 12:14:29;;;;;;;15.50;4.50;;;30.20;31.20;;;;;;21049774;27;81916;-69
2021/09/13 12:24:33;;;;;;;16.60;5.03;;;30.20;31.30;;;;;;21047955;27;81985;-71
2021/09/13 12:34:59;;;;;;;17.02;5.05;;;29.90;31.20;;;;;;21019254;27;81815;-73
2021/09/13 12:45:03;;;;;;;16.25;4.30;;;29.10;32.00;;;;;;21025977;27;82314;-70
2021/09/13 12:55:21;;;;;;;15.15;4.05;;;28.70;32.70;;;;;;21044460;27;81791;-70
2021/09/13 13:05:34;;;;;;;20.23;4.68;;;28.50;32.90;;;;;;21045648;27;81205;-71
2021/09/13 13:15:36;;;;;;;19.08;4.55;;;28.50;33.60;;;;;;21053581;27;80867;-70
2021/09/13 13:25:42;;;;;;;18.67;4.75;;;28.40;35.10;;;;;;21055461;27;81137;-70
2021/09/13 13:35:44;;;;;;;13.13;4.57;;;28.70;34.10;;;;;;21054707;27;80732;-70
2021/09/13 13:45:48;;;;;;;15.50;4.25;;;28.90;33.30;;;;;;21055630;27;80956;-71
2021/09/13 13:55:50;;;;;;;22.27;4.78;;;29.00;33.70;;;;;;21055110;27;79838;-72
2021/09/13 14:05:52;;;;;;;15.93;4.60;;;28.60;34.60;;;;;;21070096;27;80688;-69
2021/09/13 14:15:58;;;;;;;23.08;4.82;;;27.60;36.40;;;;;;21070061;27;81880;-71
2021/09/13 14:26:02;;;;;;;22.35;5.05;;;26.60;41.70;;;;;;21068626;27;80890;-66
2021/09/13 14:36:05;;;;;;;18.38;4.55;;;23.20;55.90;;;;;;21067953;27;80498;-66
2021/09/13 14:46:07;;;;;;;12.60;4.95;;;23.80;53.90;;;;;;21067307;27;80756;-68
2021/09/13 14:56:10;;;;;;;16.67;4.88;;;24.60;53.90;;;;;;21065220;27;81152;-68
2021/09/13 15:06:12;;;;;;;13.25;4.97;;;25.00;52.30;;;;;;21037876;27;80773;-67
2021/09/13 15:16:14;;;;;;;12.35;4.55;;;25.40;51.90;;;;;;20962286;27;80910;-69
2021/09/13 15:26:17;;;;;;;12.95;4.32;;;25.80;50.50;;;;;;20961514;27;80984;-69
2021/09/13 15:36:18;;;;;;;18.38;4.47;;;26.20;49.60;;;;;;20960256;27;80075;-70
2021/09/13 15:46:22;;;;;;;13.50;4.80;;;25.90;51.30;;;;;;20979133;27;81775;-67
2021/09/13 15:56:23;;;;;;;17.65;5.68;;;25.80;51.80;;;;;;20977532;27;81724;-67
2021/09/13 16:06:26;;;;;;;15.75;5.60;;;25.70;51.80;;;;;;20977583;27;81908;-68
2021/09/13 16:16:30;;;;;;;14.50;4.53;;;25.50;52.10;;;;;;20976670;27;80870;-67
2021/09/13 16:26:32;;;;;;;16.85;4.90;;;25.60;50.20;;;;;;20973971;27;80717;-67
2021/09/13 16:36:35;;;;;;;11.25;5.57;;;25.60;49.20;;;;;;20975537;27;81940;-69
2021/09/13 16:46:37;;;;;;;11.77;4.60;;;25.30;50.00;;;;;;20956561;27;79943;-68
2021/09/13 16:56:39;;;;;;;11.60;4.85;;;24.90;53.20;;;;;;20973635;27;80990;-69
2021/09/13 17:06:41;;;;;;;21.00;5.85;;;24.40;53.80;;;;;;20972617;27;81496;-67
2021/09/13 17:16:44;;;;;;;11.02;4.00;;;24.00;56.00;;;;;;20954207;27;82091;-67
2021/09/13 17:26:46;;;;;;;11.90;3.42;;;23.70;57.10;;;;;;20953473;27;80984;-69
2021/09/13 17:36:48;;;;;;;10.82;3.75;;;23.50;56.70;;;;;;21029709;27;80671;-72
2021/09/13 17:46:50;;;;;;;9.93;4.05;;;23.40;56.40;;;;;;21037780;27;81236;-71
2021/09/13 17:56:52;;;;;;;14.02;4.03;;;23.30;57.00;;;;;;20974009;27;80019;-72
2021/09/13 18:06:55;;;;;;;7.88;3.80;;;23.30;57.00;;;;;;20968860;27;80045;-72
2021/09/13 18:16:57;;;;;;;;;;;23.10;57.50;;;;;;20950985;27;80871;-71
2021/09/13 18:26:59;;;;;;;18.67;3.58;;;23.00;57.80;;;;;;20990571;27;80846;-72
2021/09/13 18:37:01;;;;;;;17.25;5.25;;;22.90;58.20;;;;;;20967642;27;79896;-69
2021/09/13 18:47:04;;;;;;;13.65;4.90;;;22.90;58.90;;;;;;20975143;27;80753;-73
2021/09/13 18:57:06;;;;;;;10.00;3.42;;;22.90;58.10;;;;;;20962364;27;82098;-71
2021/09/13 19:07:08;;;;;;;17.80;5.22;;;23.00;57.30;;;;;;20961498;27;80747;-70
2021/09/13 19:17:10;;;;;;;13.90;3.83;;;23.00;57.60;;;;;;20990802;27;82354;-73
2021/09/13 19:27:12;;;;;;;14.90;4.93;;;23.00;58.50;;;;;;20978654;27;80939;-72
2021/09/13 19:37:14;;;;;;;97.97;22.33;;;22.90;59.70;;;;;;20978292;27;82142;-71
2021/09/13 19:47:17;;;;;;;13.05;4.25;;;22.70;59.30;;;;;;20967270;27;82671;-72
2021/09/13 19:57:19;;;;;;;;;;;22.50;58.80;;;;;;20959801;27;84877;-73
2021/09/13 20:07:21;;;;;;;12.57;3.70;;;22.40;58.90;;;;;;21021193;27;81818;-72
2021/09/13 20:17:22;;;;;;;12.35;4.18;;;22.40;59.40;;;;;;20958943;27;79919;-73
2021/09/13 20:27:24;;;;;;;12.05;3.67;;;22.30;59.90;;;;;;20957370;27;81703;-71
2021/09/13 20:37:27;;;;;;;9.38;3.72;;;22.40;59.80;;;;;;20956987;27;81936;-70
2021/09/13 20:47:29;;;;;;;14.50;3.50;;;22.40;60.00;;;;;;20993638;27;81006;-69
2021/09/13 20:57:31;;;;;;;;;;;22.50;59.90;;;;;;20985650;27;81347;-69
2021/09/13 21:07:33;;;;;;;8.47;4.10;;;22.40;61.30;;;;;;20976507;27;80386;-70
2021/09/13 21:17:35;;;;;;;13.20;2.90;;;22.20;61.70;;;;;;20954733;27;80040;-70
2021/09/13 21:27:37;;;;;;;11.38;3.30;;;22.20;61.80;;;;;;20952930;27;80891;-70
2021/09/13 21:37:39;;;;;;;14.20;2.97;;;22.10;62.20;;;;;;20971265;27;80131;-70
2021/09/13 21:47:41;;;;;;;10.85;3.38;;;22.00;62.50;;;;;;20982397;27;80173;-70
2021/09/13 21:57:44;;;;;;;12.70;3.35;;;21.90;62.60;;;;;;20970282;27;80717;-70
2021/09/13 22:07:45;;;;;;;13.02;4.57;;;21.90;62.40;;;;;;20950893;27;80534;-72
2021/09/13 22:17:47;;;;;;;;;;;21.80;62.30;;;;;;20967844;27;81698;-71
2021/09/13 22:27:49;;;;;;;11.55;3.50;;;21.90;62.00;;;;;;21004942;27;80781;-71
2021/09/13 22:37:50;;;;;;;7.80;2.70;;;21.80;62.70;;;;;;20993610;27;80074;-70
2021/09/13 22:47:54;;;;;;;13.48;3.33;;;21.80;63.10;;;;;;20981501;27;80019;-70
2021/09/13 22:57:56;;;;;;;9.18;3.38;;;21.70;63.40;;;;;;20962167;27;80602;-70
2021/09/13 23:07:58;;;;;;;9.77;3.25;;;21.60;63.90;;;;;;20962137;27;80614;-69
2021/09/13 23:18:00;;;;;;;;;;;21.50;64.00;;;;;;20979944;27;81804;-70
2021/09/13 23:28:02;;;;;;;7.43;3.20;;;21.30;64.30;;;;;;20983011;27;81653;-71
2021/09/13 23:38:04;;;;;;;16.45;3.15;;;21.30;64.50;;;;;;20978618;27;81305;-71
2021/09/13 23:48:07;;;;;;;14.77;3.25;;;21.20;64.80;;;;;;20978383;27;81830;-69
2021/09/13 23:58:09;;;;;;;;;;;21.20;65.00;;;;;;20978260;27;81893;-69
